Time;durP1;ratioP1;P1;durP2;ratioP2;P2;SDS_P1;SDS_P2;PMS_P1;PMS_P2;Temp;Humidity;BMP_temperature;BMP_pressure;BME280_temperature;BME280_humidity;BME280_pressure;Samples;Min_cycle;Max_cycle;Signal;HPM_P1;HPM_P2
2023/12/04 00:00:35;;;;;;;24.90;12.35;;;-0.60;99.90;;;;;;4969041;28;20117;-73
2023/12/04 00:03:01;;;;;;;25.17;11.35;;;-0.70;99.90;;;;;;4968008;28;20066;-73
2023/12/04 00:05:27;;;;;;;27.63;10.68;;;-0.70;99.90;;;;;;4961889;28;20046;-73
2023/12/04 00:07:52;;;;;;;24.63;11.82;;;-0.60;99.90;;;;;;4961230;28;20650;-73
2023/12/04 00:10:18;;;;;;;28.65;12.32;;;-0.50;99.90;;;;;;4945745;28;20043;-73
2023/12/04 00:12:44;;;;;;;31.27;12.30;;;-0.70;99.90;;;;;;4942151;28;20126;-73
2023/12/04 00:15:10;;;;;;;28.40;12.05;;;-0.70;99.90;;;;;;4961771;28;20042;-73
2023/12/04 00:17:39;;;;;;;25.52;10.07;;;-0.70;99.90;;;;;;4950117;28;20468;-74
2023/12/04 00:20:06;;;;;;;24.13;9.98;;;-0.70;99.90;;;;;;4963344;28;20047;-73
2023/12/04 00:22:32;;;;;;;30.58;12.88;;;-0.70;99.90;;;;;;4943582;28;20412;-73
2023/12/04 00:24:58;;;;;;;21.85;10.90;;;-0.60;99.90;;;;;;4956316;28;20043;-73
2023/12/04 00:27:26;;;;;;;27.67;12.20;;;-0.60;99.90;;;;;;4975914;28;20051;-73
2023/12/04 00:29:53;;;;;;;25.05;11.32;;;-0.60;99.90;;;;;;4959651;28;20039;-73
2023/12/04 00:32:18;;;;;;;20.60;10.85;;;-0.40;99.90;;;;;;4910275;28;20039;-73
2023/12/04 00:34:44;;;;;;;21.60;10.85;;;-0.70;99.90;;;;;;4959713;28;20532;-73
2023/12/04 00:37:09;;;;;;;22.80;9.70;;;-0.70;99.90;;;;;;4942511;28;20039;-73
2023/12/04 00:39:35;;;;;;;30.30;12.40;;;-0.60;99.90;;;;;;4965046;28;20042;-73
2023/12/04 00:42:01;;;;;;;24.98;11.00;;;-0.70;99.90;;;;;;4953533;28;20046;-73
2023/12/04 00:44:26;;;;;;;23.20;10.63;;;-0.70;99.90;;;;;;4945738;28;20041;-73
2023/12/04 00:46:52;;;;;;;23.05;10.55;;;-0.60;99.90;;;;;;4943322;28;20050;-73
2023/12/04 00:49:19;;;;;;;28.50;11.82;;;-0.70;99.90;;;;;;4946519;28;20243;-73
2023/12/04 00:51:44;;;;;;;25.10;12.18;;;-0.70;99.90;;;;;;4963216;28;20050;-73
2023/12/04 00:54:11;;;;;;;27.33;10.65;;;-0.70;99.90;;;;;;4965307;28;20031;-73
2023/12/04 00:56:40;;;;;;;25.85;12.23;;;-0.70;99.90;;;;;;4952427;28;20120;-73
2023/12/04 00:59:09;;;;;;;27.42;13.77;;;-0.60;99.90;;;;;;4937009;28;20043;-73
2023/12/04 01:01:38;;;;;;;34.83;12.73;;;-0.60;99.90;;;;;;4958607;28;20049;-73
2023/12/04 01:04:04;;;;;;;34.92;13.38;;;-0.40;99.90;;;;;;4952035;28;20041;-73
2023/12/04 01:06:29;;;;;;;22.63;11.52;;;-0.60;99.90;;;;;;4946027;28;20047;-73
2023/12/04 01:08:56;;;;;;;29.25;11.73;;;-0.60;99.90;;;;;;4962453;28;20070;-73
2023/12/04 01:11:23;;;;;;;24.30;11.85;;;-0.60;99.90;;;;;;4948717;28;20097;-73
2023/12/04 01:13:49;;;;;;;30.35;13.75;;;-0.60;99.90;;;;;;4955356;28;20039;-73
2023/12/04 01:16:16;;;;;;;33.92;14.48;;;-0.60;99.90;;;;;;4954962;28;20481;-73
2023/12/04 01:18:43;;;;;;;25.95;12.23;;;-0.60;99.90;;;;;;4945205;28;20038;-73
2023/12/04 01:21:09;;;;;;;25.65;11.27;;;-0.60;99.90;;;;;;4940598;28;20081;-73
2023/12/04 01:23:35;;;;;;;25.13;11.18;;;-0.60;99.90;;;;;;4945175;28;20038;-73
2023/12/04 01:26:02;;;;;;;20.77;10.43;;;-0.60;99.90;;;;;;4943113;28;20054;-73
2023/12/04 01:28:28;;;;;;;31.33;12.85;;;-0.60;99.90;;;;;;4955944;28;20062;-73
2023/12/04 01:30:54;;;;;;;24.45;11.95;;;-0.60;99.90;;;;;;4944679;28;20043;-73
2023/12/04 01:33:19;;;;;;;24.48;12.38;;;-0.50;99.90;;;;;;4959520;28;20038;-73
2023/12/04 01:35:45;;;;;;;22.13;10.77;;;-0.60;99.90;;;;;;4957209;28;20039;-73
2023/12/04 01:38:10;;;;;;;27.80;10.75;;;-0.20;99.90;;;;;;4949860;28;20045;-73
2023/12/04 01:40:36;;;;;;;27.67;12.32;;;-0.60;99.90;;;;;;4958651;28;20050;-73
2023/12/04 01:43:02;;;;;;;28.42;11.80;;;-0.60;99.90;;;;;;4957078;28;20121;-73
2023/12/04 01:45:28;;;;;;;19.75;9.02;;;-0.60;99.90;;;;;;4958848;28;20411;-74
2023/12/04 01:47:54;;;;;;;23.20;10.82;;;-0.60;99.90;;;;;;4958006;28;20043;-74
2023/12/04 01:50:20;;;;;;;21.13;10.07;;;-0.60;99.90;;;;;;4956904;28;20046;-73
2023/12/04 01:52:47;;;;;;;25.98;12.05;;;-0.60;99.90;;;;;;4961974;28;20042;-74
2023/12/04 01:55:13;;;;;;;30.88;12.55;;;-0.60;99.90;;;;;;4948312;28;20046;-74
2023/12/04 01:57:39;;;;;;;26.65;11.70;;;-0.50;99.90;;;;;;4947604;28;20066;-74
2023/12/04 02:00:11;;;;;;;31.27;12.43;;;-0.50;99.90;;;;;;4944514;28;20145;-73
2023/12/04 02:02:41;;;;;;;25.67;11.57;;;-0.50;99.90;;;;;;4951556;28;20554;-74
2023/12/04 02:05:09;;;;;;;28.95;12.32;;;-0.50;99.90;;;;;;4957869;28;20042;-73
2023/12/04 02:07:36;;;;;;;23.55;11.38;;;-0.50;99.90;;;;;;4958869;28;20039;-74
2023/12/04 02:10:03;;;;;;;31.42;12.65;;;-0.50;99.90;;;;;;4961161;28;20499;-73
2023/12/04 02:12:29;;;;;;;24.02;12.07;;;-0.50;99.90;;;;;;4958287;28;20034;-73
2023/12/04 02:14:55;;;;;;;22.00;9.50;;;-0.50;99.90;;;;;;4945565;28;20035;-73
2023/12/04 02:17:22;;;;;;;24.02;10.93;;;-0.50;99.90;;;;;;4961500;28;20054;-73
2023/12/04 02:19:47;;;;;;;24.05;11.25;;;-0.50;99.90;;;;;;4949344;28;20027;-73
2023/12/04 02:22:13;;;;;;;28.05;11.73;;;-0.50;99.90;;;;;;4942570;28;20046;-74
2023/12/04 02:24:39;;;;;;;20.58;10.18;;;-0.50;99.90;;;;;;4946779;28;20043;-74
2023/12/04 02:27:15;;;;;;;30.45;11.55;;;-0.50;99.90;;;;;;4958898;28;20116;-74
2023/12/04 02:29:51;;;;;;;22.88;10.57;;;-0.40;99.90;;;;;;4945510;28;20054;-73
2023/12/04 02:32:19;;;;;;;24.92;10.52;;;-0.40;99.90;;;;;;4960929;28;20027;-73
2023/12/04 02:34:48;;;;;;;23.75;10.75;;;-0.40;99.90;;;;;;4952679;28;20042;-74
2023/12/04 02:37:15;;;;;;;22.35;10.60;;;-0.40;99.90;;;;;;4948798;28;20117;-73
2023/12/04 02:39:41;;;;;;;20.95;9.43;;;-0.40;99.90;;;;;;4946660;28;20556;-73
2023/12/04 02:42:07;;;;;;;28.52;11.40;;;-0.40;99.90;;;;;;4963668;28;20385;-74
2023/12/04 02:44:33;;;;;;;24.83;10.68;;;-0.30;99.90;;;;;;4950668;28;20046;-74
2023/12/04 02:47:00;;;;;;;24.05;10.85;;;-0.30;99.90;;;;;;4960772;28;20075;-73
2023/12/04 02:49:26;;;;;;;18.58;9.60;;;0.10;99.90;;;;;;4956624;28;20070;-73
2023/12/04 02:51:52;;;;;;;25.27;10.65;;;-0.30;99.90;;;;;;4946220;28;20046;-74
2023/12/04 02:54:17;;;;;;;22.55;11.32;;;-0.30;99.90;;;;;;4969050;28;20492;-73
2023/12/04 02:56:43;;;;;;;26.35;12.32;;;-0.30;99.90;;;;;;4955984;28;20047;-74
2023/12/04 02:59:08;;;;;;;17.30;8.55;;;-0.30;99.90;;;;;;4956784;28;20073;-74
2023/12/04 03:01:34;;;;;;;28.50;12.35;;;-0.30;99.90;;;;;;4955707;28;20043;-74
2023/12/04 03:04:00;;;;;;;23.17;10.98;;;-0.40;99.90;;;;;;4957170;28;20500;-74
2023/12/04 03:06:26;;;;;;;25.63;11.05;;;-0.30;99.90;;;;;;4965377;28;20046;-73
2023/12/04 03:08:52;;;;;;;24.77;10.77;;;-0.30;99.90;;;;;;4973305;28;20043;-73
2023/12/04 03:11:17;;;;;;;26.40;11.48;;;-0.30;99.90;;;;;;4948749;28;20035;-73
2023/12/04 03:13:43;;;;;;;24.45;11.82;;;0.10;99.90;;;;;;4958538;28;20069;-73
2023/12/04 03:16:16;;;;;;;22.20;10.52;;;-0.30;99.90;;;;;;4948226;28;20089;-74
2023/12/04 03:18:42;;;;;;;25.67;10.93;;;-0.40;99.90;;;;;;4945244;28;20073;-73
2023/12/04 03:21:08;;;;;;;20.55;10.25;;;-0.40;99.90;;;;;;4960616;28;20161;-73
2023/12/04 03:23:33;;;;;;;27.50;10.23;;;-0.40;99.90;;;;;;4955703;28;20441;-73
2023/12/04 03:25:59;;;;;;;20.45;11.38;;;-0.40;99.90;;;;;;4957247;28;20039;-73
2023/12/04 03:28:25;;;;;;;18.90;10.65;;;-0.40;99.90;;;;;;4954933;28;20535;-73
2023/12/04 03:30:50;;;;;;;27.02;12.15;;;-0.40;99.90;;;;;;4943993;28;20075;-73
2023/12/04 03:33:16;;;;;;;20.35;11.32;;;-0.30;99.90;;;;;;4917027;28;20039;-73
2023/12/04 03:35:42;;;;;;;24.25;11.68;;;-0.40;99.90;;;;;;4954352;28;20039;-73
2023/12/04 03:38:07;;;;;;;21.20;8.13;;;-0.40;99.90;;;;;;4944919;28;20058;-74
2023/12/04 03:40:33;;;;;;;20.70;9.88;;;-0.40;99.90;;;;;;4946300;28;20484;-74
2023/12/04 03:42:59;;;;;;;26.67;11.38;;;-0.30;99.90;;;;;;4957346;28;20050;-74
2023/12/04 03:45:24;;;;;;;27.33;11.52;;;-0.20;99.90;;;;;;4943334;28;20050;-74
2023/12/04 03:47:50;;;;;;;25.23;11.68;;;-0.30;99.90;;;;;;4948289;28;20080;-73
2023/12/04 03:50:16;;;;;;;23.95;11.38;;;-0.30;99.90;;;;;;4959182;28;20130;-74
2023/12/04 03:52:42;;;;;;;26.58;10.95;;;-0.30;99.90;;;;;;4953566;28;20038;-74
2023/12/04 03:55:09;;;;;;;26.02;11.93;;;-0.40;99.90;;;;;;4947363;28;20039;-74
2023/12/04 03:57:34;;;;;;;25.05;11.55;;;-0.40;99.90;;;;;;4932238;28;20046;-73
2023/12/04 04:00:00;;;;;;;24.75;10.57;;;-0.40;99.90;;;;;;4951105;28;20046;-74
2023/12/04 04:02:26;;;;;;;23.20;11.32;;;0.00;99.90;;;;;;4951968;28;20043;-73
2023/12/04 04:04:51;;;;;;;20.38;11.48;;;-0.40;99.90;;;;;;4949873;28;20130;-73
2023/12/04 04:07:17;;;;;;;26.33;11.38;;;-0.40;99.90;;;;;;4961313;28;20043;-73
2023/12/04 04:09:43;;;;;;;27.02;11.02;;;-0.30;99.90;;;;;;4958846;28;20074;-73
2023/12/04 04:12:09;;;;;;;23.45;11.88;;;-0.40;99.90;;;;;;4950799;28;20132;-73
2023/12/04 04:14:35;;;;;;;22.88;10.50;;;-0.40;99.90;;;;;;4970139;28;20042;-73
2023/12/04 04:17:00;;;;;;;24.95;10.73;;;-0.40;99.90;;;;;;4949012;28;20408;-74
2023/12/04 04:19:26;;;;;;;24.23;10.32;;;-0.40;99.90;;;;;;4951813;28;20126;-73
2023/12/04 04:21:52;;;;;;;24.52;10.82;;;-0.40;99.90;;;;;;4955193;28;20039;-73
2023/12/04 04:24:17;;;;;;;26.10;11.85;;;-0.40;99.90;;;;;;4967179;28;20050;-73
2023/12/04 04:26:43;;;;;;;21.95;11.10;;;0.00;99.90;;;;;;4933220;28;20089;-74
2023/12/04 04:29:09;;;;;;;21.77;10.75;;;-0.40;99.90;;;;;;4966810;28;20047;-73
2023/12/04 04:31:35;;;;;;;18.88;9.68;;;-0.40;99.90;;;;;;4919670;29;20042;-73
2023/12/04 04:34:01;;;;;;;24.77;11.13;;;-0.30;99.90;;;;;;4962023;28;20126;-73
2023/12/04 04:36:27;;;;;;;25.90;11.32;;;-0.30;99.90;;;;;;4970798;28;20043;-74
2023/12/04 04:38:52;;;;;;;22.77;12.02;;;-0.30;99.90;;;;;;4966124;28;20407;-73
2023/12/04 04:41:18;;;;;;;23.98;9.88;;;-0.30;99.90;;;;;;4954889;28;20164;-73
2023/12/04 04:43:44;;;;;;;20.60;8.95;;;-0.30;99.90;;;;;;4969885;28;20046;-73
2023/12/04 04:46:10;;;;;;;20.75;10.80;;;-0.30;99.90;;;;;;4959267;28;20400;-73
2023/12/04 04:48:35;;;;;;;23.45;10.93;;;-0.30;99.90;;;;;;4951998;28;20123;-73
2023/12/04 04:51:01;;;;;;;24.00;11.10;;;-0.30;99.90;;;;;;4943483;28;20074;-73
2023/12/04 04:53:27;;;;;;;21.52;10.15;;;-0.20;99.90;;;;;;4955901;28;20034;-73
2023/12/04 04:55:52;;;;;;;18.77;8.98;;;-0.30;99.90;;;;;;4948572;28;20031;-73
2023/12/04 04:58:18;;;;;;;16.63;9.35;;;-0.20;99.90;;;;;;4946444;28;20035;-73
2023/12/04 05:00:44;;;;;;;25.85;11.30;;;-0.20;99.90;;;;;;4957087;28;20042;-73
2023/12/04 05:03:10;;;;;;;22.95;10.10;;;-0.20;99.90;;;;;;4940381;28;20070;-73
2023/12/04 05:05:36;;;;;;;21.52;9.63;;;-0.20;99.90;;;;;;4908801;28;20085;-73
2023/12/04 05:08:01;;;;;;;23.00;11.23;;;-0.20;99.90;;;;;;4954777;28;20039;-73
2023/12/04 05:10:27;;;;;;;25.48;11.15;;;-0.20;99.90;;;;;;4965166;28;20503;-73
2023/12/04 05:12:53;;;;;;;20.92;9.75;;;-0.20;99.90;;;;;;4917575;28;20090;-74
2023/12/04 05:15:18;;;;;;;24.20;10.05;;;-0.20;99.90;;;;;;4918058;28;20035;-74
2023/12/04 05:17:44;;;;;;;24.33;10.88;;;-0.20;99.90;;;;;;4957202;28;20042;-73
2023/12/04 05:20:10;;;;;;;22.13;10.40;;;-0.20;99.90;;;;;;4953053;28;20039;-73
2023/12/04 05:22:36;;;;;;;18.23;10.48;;;-0.20;99.90;;;;;;4960168;28;20090;-73
2023/12/04 05:25:01;;;;;;;18.70;8.73;;;-0.30;99.90;;;;;;4929103;28;20039;-74
2023/12/04 05:27:27;;;;;;;20.63;9.55;;;-0.30;99.90;;;;;;4946447;28;20047;-73
2023/12/04 05:29:53;;;;;;;19.63;9.35;;;1.30;99.90;;;;;;4948716;28;20043;-73
2023/12/04 05:32:18;;;;;;;27.58;10.57;;;-0.20;99.90;;;;;;4944601;28;20050;-73
2023/12/04 05:34:44;;;;;;;20.33;10.30;;;-0.20;99.90;;;;;;4962822;28;20071;-73
2023/12/04 05:37:10;;;;;;;25.15;10.20;;;-0.20;99.90;;;;;;4955388;28;20038;-73
2023/12/04 05:39:35;;;;;;;20.13;9.93;;;-0.30;99.90;;;;;;4941773;28;20038;-73
2023/12/04 05:42:01;;;;;;;19.10;9.48;;;-0.20;99.90;;;;;;4950277;28;20051;-73
2023/12/04 05:44:26;;;;;;;24.83;9.68;;;-0.20;99.90;;;;;;4950605;28;20038;-73
2023/12/04 05:46:52;;;;;;;21.23;9.07;;;-0.20;99.90;;;;;;4962667;28;20477;-73
2023/12/04 05:49:18;;;;;;;19.80;10.05;;;-0.20;99.90;;;;;;4930044;28;20475;-73
2023/12/04 05:51:43;;;;;;;20.58;9.60;;;0.40;99.90;;;;;;4941973;28;20078;-73
2023/12/04 05:54:09;;;;;;;23.02;10.65;;;-0.20;99.90;;;;;;4957163;28;20046;-74
2023/12/04 05:56:35;;;;;;;20.13;10.73;;;-0.10;99.90;;;;;;4937724;28;20027;-73
2023/12/04 05:59:00;;;;;;;18.42;8.68;;;-0.10;99.90;;;;;;4947454;28;20070;-73
2023/12/04 06:01:26;;;;;;;19.67;10.48;;;0.10;99.90;;;;;;4965782;28;20046;-73
2023/12/04 06:03:52;;;;;;;18.67;9.50;;;-0.10;99.90;;;;;;4944101;28;20135;-74
2023/12/04 06:06:17;;;;;;;22.10;9.75;;;-0.10;99.90;;;;;;4939295;28;20229;-73
2023/12/04 06:08:43;;;;;;;20.13;9.88;;;0.00;99.90;;;;;;4945538;28;20046;-74
2023/12/04 06:11:09;;;;;;;19.83;10.82;;;0.00;99.90;;;;;;4949806;28;20097;-73
2023/12/04 06:13:34;;;;;;;19.92;8.52;;;0.00;99.90;;;;;;4948384;28;20034;-73
2023/12/04 06:16:00;;;;;;;25.00;9.90;;;0.00;99.90;;;;;;4928344;28;20058;-73
2023/12/04 06:18:25;;;;;;;13.98;7.88;;;-0.10;99.90;;;;;;4962066;28;20078;-73
2023/12/04 06:20:51;;;;;;;19.42;10.70;;;0.00;99.90;;;;;;4955925;28;20043;-73
2023/12/04 06:23:18;;;;;;;19.70;7.90;;;-0.10;99.90;;;;;;4983513;28;20043;-74
2023/12/04 06:25:44;;;;;;;18.48;9.02;;;0.00;99.90;;;;;;4948463;28;20413;-73
2023/12/04 06:28:10;;;;;;;20.98;8.60;;;0.00;99.90;;;;;;4952303;28;20035;-73
2023/12/04 06:30:36;;;;;;;16.05;8.63;;;0.00;99.90;;;;;;4961406;28;20031;-73
2023/12/04 06:33:02;;;;;;;24.35;10.18;;;-0.10;99.90;;;;;;4950475;28;20050;-73
2023/12/04 06:35:28;;;;;;;17.67;9.48;;;-0.10;99.90;;;;;;4945615;28;20035;-73
2023/12/04 06:37:55;;;;;;;21.65;8.65;;;-0.10;99.90;;;;;;4965783;28;20066;-73
2023/12/04 06:40:21;;;;;;;20.15;9.55;;;-0.10;99.90;;;;;;4959319;28;20043;-73
2023/12/04 06:42:47;;;;;;;19.75;9.63;;;-0.10;99.90;;;;;;4959361;28;20046;-73
2023/12/04 06:45:13;;;;;;;16.13;8.48;;;-0.10;99.90;;;;;;4963904;28;20046;-73
2023/12/04 06:47:43;;;;;;;17.83;9.60;;;-0.10;99.90;;;;;;4944857;28;20042;-73
2023/12/04 06:50:09;;;;;;;18.63;9.25;;;-0.10;99.90;;;;;;4960049;28;20051;-73
2023/12/04 06:52:34;;;;;;;18.10;9.65;;;-0.10;99.90;;;;;;4959431;28;20046;-73
2023/12/04 06:55:00;;;;;;;19.45;9.88;;;-0.20;99.90;;;;;;4960916;28;20038;-73
2023/12/04 06:57:26;;;;;;;28.00;9.23;;;-0.20;99.90;;;;;;4953374;28;20042;-73
2023/12/04 06:59:51;;;;;;;18.80;8.60;;;-0.20;99.90;;;;;;4962547;28;20405;-73
2023/12/04 07:02:17;;;;;;;18.90;8.93;;;-0.20;99.90;;;;;;4933243;28;20480;-73
2023/12/04 07:04:43;;;;;;;17.05;8.10;;;-0.20;99.90;;;;;;4945092;28;20378;-74
2023/12/04 07:07:08;;;;;;;21.67;9.18;;;0.10;99.90;;;;;;4955306;28;20046;-73
2023/12/04 07:09:34;;;;;;;17.23;8.73;;;-0.20;99.90;;;;;;4950107;28;20396;-73
2023/12/04 07:12:03;;;;;;;16.95;8.18;;;-0.20;99.90;;;;;;4963320;28;20030;-74
2023/12/04 07:14:29;;;;;;;19.88;9.27;;;-0.20;99.90;;;;;;4948876;28;20037;-73
2023/12/04 07:16:55;;;;;;;19.80;9.77;;;-0.20;99.90;;;;;;4957039;28;20035;-73
2023/12/04 07:19:20;;;;;;;20.83;8.65;;;1.20;99.90;;;;;;4949335;28;20043;-74
2023/12/04 07:21:47;;;;;;;17.75;8.88;;;-0.20;99.90;;;;;;4951078;28;20043;-75
2023/12/04 07:24:13;;;;;;;16.38;8.82;;;-0.20;99.90;;;;;;4963674;28;20125;-75
2023/12/04 07:26:38;;;;;;;14.35;8.85;;;-0.20;99.90;;;;;;4965360;28;20559;-75
2023/12/04 07:29:04;;;;;;;17.40;8.70;;;-0.20;99.90;;;;;;4972253;28;20287;-75
2023/12/04 07:31:30;;;;;;;16.65;9.10;;;-0.20;99.90;;;;;;4952239;28;20324;-74
2023/12/04 07:33:56;;;;;;;20.00;8.45;;;-0.20;99.90;;;;;;4963323;28;20505;-75
2023/12/04 07:36:23;;;;;;;17.05;8.95;;;-0.20;99.90;;;;;;4971421;28;20516;-75
2023/12/04 07:38:50;;;;;;;17.90;8.63;;;-0.20;99.90;;;;;;4963352;28;20039;-74
2023/12/04 07:41:18;;;;;;;17.58;8.77;;;-0.20;99.90;;;;;;4956025;28;20035;-74
2023/12/04 07:43:43;;;;;;;19.23;7.95;;;-0.20;99.90;;;;;;4956265;28;20504;-75
2023/12/04 07:46:11;;;;;;;13.68;7.90;;;0.20;99.90;;;;;;4960654;28;20039;-75
2023/12/04 07:48:37;;;;;;;13.27;7.18;;;0.00;99.90;;;;;;4955755;28;20059;-75
2023/12/04 07:51:03;;;;;;;14.23;7.40;;;-0.20;99.90;;;;;;4956505;28;20053;-75
2023/12/04 07:53:29;;;;;;;12.32;7.78;;;-0.20;99.90;;;;;;4984328;28;20042;-75
2023/12/04 07:55:54;;;;;;;12.68;7.47;;;-0.20;99.90;;;;;;4956766;28;20054;-75
2023/12/04 07:58:21;;;;;;;16.58;8.73;;;-0.20;99.90;;;;;;4971818;28;20039;-75
2023/12/04 08:00:47;;;;;;;12.75;7.28;;;-0.20;99.90;;;;;;4955861;28;20042;-75
2023/12/04 08:03:13;;;;;;;13.68;7.13;;;-0.10;99.90;;;;;;4956028;28;20046;-75
2023/12/04 08:05:39;;;;;;;16.27;7.55;;;-0.10;99.90;;;;;;4971400;28;20043;-75
2023/12/04 08:08:05;;;;;;;15.23;7.00;;;-0.10;99.90;;;;;;4955593;28;20063;-75
2023/12/04 08:10:31;;;;;;;16.00;7.72;;;-0.10;99.90;;;;;;4955754;28;20503;-74
2023/12/04 08:12:57;;;;;;;12.38;6.80;;;-0.10;99.90;;;;;;4955883;28;20042;-75
2023/12/04 08:15:22;;;;;;;15.38;8.20;;;-0.10;99.90;;;;;;4971617;28;20038;-75
2023/12/04 08:17:48;;;;;;;17.27;7.72;;;-0.10;99.90;;;;;;4954521;28;20093;-75
2023/12/04 08:20:14;;;;;;;12.60;7.03;;;-0.10;99.90;;;;;;4954976;28;20038;-75
2023/12/04 08:22:41;;;;;;;16.40;7.35;;;-0.10;99.90;;;;;;4955589;28;20046;-75
2023/12/04 08:25:07;;;;;;;14.25;7.32;;;-0.10;99.90;;;;;;4973460;28;20050;-75
2023/12/04 08:27:33;;;;;;;14.50;7.40;;;-0.10;99.90;;;;;;4952715;28;20049;-75
2023/12/04 08:29:59;;;;;;;13.18;6.82;;;0.70;99.90;;;;;;4956922;28;20050;-75
2023/12/04 08:32:26;;;;;;;12.95;7.43;;;0.00;99.90;;;;;;4954237;28;20471;-75
2023/12/04 08:34:52;;;;;;;14.35;6.85;;;-0.10;99.90;;;;;;4938920;28;20034;-75
2023/12/04 08:37:20;;;;;;;10.63;5.75;;;0.00;99.90;;;;;;4971804;28;20038;-75
2023/12/04 08:39:45;;;;;;;15.10;7.32;;;0.00;99.90;;;;;;4975821;28;20157;-75
2023/12/04 08:42:12;;;;;;;14.50;7.25;;;0.00;99.90;;;;;;4971559;28;20046;-75
2023/12/04 08:44:38;;;;;;;11.68;6.43;;;0.00;99.90;;;;;;4955423;28;20055;-75
2023/12/04 08:47:04;;;;;;;12.13;6.47;;;0.10;99.90;;;;;;4950197;28;20039;-75
2023/12/04 08:49:30;;;;;;;13.98;6.03;;;0.10;99.90;;;;;;4967093;28;20420;-75
2023/12/04 08:51:56;;;;;;;13.57;6.65;;;0.10;99.90;;;;;;4954388;28;20050;-75
2023/12/04 08:54:21;;;;;;;10.73;6.28;;;0.10;99.90;;;;;;4970578;28;20142;-75
2023/12/04 08:56:47;;;;;;;13.93;6.30;;;0.10;99.90;;;;;;4953238;28;20109;-75
2023/12/04 08:59:13;;;;;;;13.00;6.07;;;0.10;99.90;;;;;;4971181;28;20034;-75
2023/12/04 09:01:39;;;;;;;11.90;6.25;;;0.10;99.90;;;;;;4970794;28;20112;-75
2023/12/04 09:04:04;;;;;;;14.32;6.53;;;0.20;99.90;;;;;;4971003;28;20050;-75
2023/12/04 09:06:30;;;;;;;9.60;6.07;;;0.20;99.90;;;;;;4938187;28;20034;-75
2023/12/04 09:08:56;;;;;;;12.32;6.65;;;0.20;99.90;;;;;;4984118;28;20042;-75
2023/12/04 09:11:22;;;;;;;9.90;5.25;;;0.30;99.90;;;;;;4970914;28;20424;-75
2023/12/04 09:13:47;;;;;;;10.82;5.90;;;0.60;99.90;;;;;;4938481;28;20082;-75
2023/12/04 09:16:13;;;;;;;10.35;5.40;;;0.30;99.90;;;;;;4947976;28;20031;-75
2023/12/04 09:18:39;;;;;;;11.63;6.22;;;0.40;99.90;;;;;;4936789;28;20053;-75
2023/12/04 09:21:05;;;;;;;11.40;5.53;;;0.40;99.90;;;;;;4955098;28;20039;-75
2023/12/04 09:23:31;;;;;;;14.07;6.53;;;0.50;99.90;;;;;;4949494;28;20420;-76
2023/12/04 09:25:57;;;;;;;12.20;6.28;;;0.50;99.90;;;;;;4959212;28;20441;-76
2023/12/04 09:28:23;;;;;;;11.35;6.07;;;1.10;99.90;;;;;;4953788;28;20416;-76
2023/12/04 09:30:48;;;;;;;12.48;5.78;;;0.60;99.90;;;;;;4951308;28;20043;-76
2023/12/04 09:33:14;;;;;;;10.43;5.97;;;0.60;99.90;;;;;;4950696;28;20149;-74
2023/12/04 09:35:40;;;;;;;10.32;5.90;;;1.10;99.90;;;;;;4953769;28;20043;-75
2023/12/04 09:38:05;;;;;;;9.85;5.57;;;0.70;99.90;;;;;;4953599;28;20051;-74
2023/12/04 09:40:32;;;;;;;9.57;5.07;;;0.70;99.90;;;;;;4938296;28;20046;-74
2023/12/04 09:42:58;;;;;;;9.48;4.80;;;1.00;99.90;;;;;;4970135;28;20044;-75
2023/12/04 09:45:25;;;;;;;9.23;4.70;;;0.80;99.90;;;;;;4936545;28;20121;-74
2023/12/04 09:47:51;;;;;;;12.98;6.30;;;0.80;99.90;;;;;;4959970;28;20055;-74
2023/12/04 09:50:22;;;;;;;10.85;5.75;;;0.80;99.90;;;;;;4970015;28;20572;-73
2023/12/04 09:52:52;;;;;;;13.15;6.60;;;0.80;99.90;;;;;;4962052;28;20050;-74
2023/12/04 09:55:18;;;;;;;11.48;5.35;;;0.90;99.90;;;;;;4969427;28;20698;-75
2023/12/04 09:57:48;;;;;;;10.90;6.60;;;0.90;99.90;;;;;;4963001;28;20041;-75
2023/12/04 10:00:15;;;;;;;11.13;6.57;;;0.90;99.90;;;;;;4970682;28;20043;-75
2023/12/04 10:02:41;;;;;;;12.52;6.38;;;0.90;99.90;;;;;;4968739;28;20481;-75
2023/12/04 10:05:08;;;;;;;10.50;4.68;;;0.90;99.90;;;;;;4969667;28;20492;-75
2023/12/04 10:07:36;;;;;;;8.10;5.60;;;1.00;99.90;;;;;;4960536;28;20648;-75
2023/12/04 10:10:05;;;;;;;8.55;4.93;;;1.00;99.90;;;;;;4970322;28;20042;-75
2023/12/04 10:12:33;;;;;;;9.05;5.13;;;1.00;99.90;;;;;;4932901;28;20094;-74
2023/12/04 10:15:06;;;;;;;7.35;4.90;;;1.10;99.90;;;;;;4960649;28;20047;-75
2023/12/04 10:17:40;;;;;;;11.35;4.90;;;1.10;99.90;;;;;;4959841;28;20043;-75
2023/12/04 10:20:12;;;;;;;10.20;5.68;;;1.10;99.90;;;;;;4970399;28;20135;-74
2023/12/04 10:22:59;;;;;;;8.48;5.57;;;1.20;99.90;;;;;;4947762;28;20039;-75
2023/12/04 10:25:28;;;;;;;11.13;5.82;;;1.20;99.90;;;;;;4945595;28;20039;-74
2023/12/04 10:27:54;;;;;;;9.32;5.32;;;1.30;99.90;;;;;;4964791;28;20044;-74
2023/12/04 10:30:27;;;;;;;8.27;4.72;;;1.40;99.90;;;;;;4966701;28;20042;-74
2023/12/04 10:33:00;;;;;;;7.93;4.82;;;1.40;99.90;;;;;;4954102;28;20171;-74
2023/12/04 10:35:32;;;;;;;;;;;1.40;99.90;;;;;;4954380;28;20493;-74
2023/12/04 10:38:02;;;;;;;7.40;5.00;;;1.40;99.90;;;;;;4969800;28;19918;-78
2023/12/04 10:40:33;;;;;;;9.23;4.88;;;1.60;99.90;;;;;;4935555;28;20127;-78
2023/12/04 10:43:14;;;;;;;8.05;4.78;;;1.50;99.90;;;;;;4953970;28;20042;-84
2023/12/04 10:45:41;;;;;;;13.55;5.43;;;2.10;99.90;;;;;;4952396;28;20180;-79
2023/12/04 10:48:08;;;;;;;9.48;5.43;;;1.50;99.90;;;;;;4969332;28;20070;-79
2023/12/04 10:50:37;;;;;;;10.20;5.70;;;1.60;99.90;;;;;;4968766;28;20775;-75
2023/12/04 10:53:07;;;;;;;11.10;5.70;;;1.50;99.90;;;;;;4967977;28;20038;-75
2023/12/04 10:55:34;;;;;;;9.52;5.28;;;1.60;99.90;;;;;;4953460;28;20054;-75
2023/12/04 10:58:07;;;;;;;11.93;6.38;;;1.50;99.90;;;;;;4949654;28;20050;-75
2023/12/04 11:00:34;;;;;;;9.40;5.20;;;1.60;99.90;;;;;;4964339;28;20403;-75
2023/12/04 11:03:08;;;;;;;7.93;5.35;;;1.50;99.90;;;;;;4967404;28;20114;-75
2023/12/04 11:05:39;;;;;;;15.88;5.75;;;1.50;99.90;;;;;;4955824;28;20122;-76
2023/12/04 11:08:08;;;;;;;9.82;5.75;;;1.50;99.90;;;;;;4958805;28;20078;-75
2023/12/04 11:10:53;;;;;;;12.10;6.13;;;1.50;99.90;;;;;;4946007;28;20093;-76
2023/12/04 11:13:26;;;;;;;10.93;6.65;;;1.40;99.90;;;;;;4962826;28;20039;-75
2023/12/04 11:15:55;;;;;;;12.55;6.22;;;1.40;99.90;;;;;;4944026;28;20062;-75
2023/12/04 11:18:23;;;;;;;11.02;5.78;;;1.40;99.90;;;;;;4959521;28;20039;-74
2023/12/04 11:21:01;;;;;;;9.38;5.47;;;1.70;99.90;;;;;;4969171;28;20042;-74
2023/12/04 11:23:27;;;;;;;9.23;5.00;;;1.40;99.90;;;;;;4962855;28;20050;-75
2023/12/04 11:25:53;;;;;;;13.80;5.43;;;1.70;99.90;;;;;;4962397;28;20493;-76
2023/12/04 11:28:20;;;;;;;11.48;5.68;;;1.40;99.90;;;;;;4953100;28;20058;-76
2023/12/04 11:30:47;;;;;;;10.48;5.85;;;1.30;99.90;;;;;;4950011;28;20402;-76
2023/12/04 11:33:12;;;;;;;9.32;5.20;;;1.30;99.90;;;;;;4954597;28;20035;-76
2023/12/04 11:35:39;;;;;;;9.82;5.78;;;1.40;99.90;;;;;;4923486;28;20046;-76
2023/12/04 11:38:07;;;;;;;9.98;5.47;;;1.40;99.90;;;;;;4956243;28;20500;-76
2023/12/04 11:40:32;;;;;;;10.38;5.93;;;1.40;99.90;;;;;;4951679;28;20054;-76
2023/12/04 11:42:58;;;;;;;10.05;5.75;;;1.40;99.90;;;;;;4950104;28;20043;-76
2023/12/04 11:45:24;;;;;;;9.93;6.10;;;1.30;99.90;;;;;;4956231;28;20134;-75
2023/12/04 11:47:51;;;;;;;10.05;5.05;;;1.40;99.90;;;;;;4956303;28;20073;-76
2023/12/04 11:50:19;;;;;;;10.02;5.07;;;1.40;99.90;;;;;;4955997;28;20505;-76
2023/12/04 11:52:45;;;;;;;9.15;5.35;;;1.40;99.90;;;;;;4954878;28;20046;-75
2023/12/04 11:55:11;;;;;;;10.98;5.68;;;1.40;99.90;;;;;;4956672;28;20530;-75
2023/12/04 11:57:40;;;;;;;8.60;5.55;;;1.40;99.90;;;;;;4939360;28;20066;-76
2023/12/04 12:00:21;;;;;;;11.55;5.50;;;2.00;99.90;;;;;;4954971;28;20043;-76
2023/12/04 12:03:09;;;;;;;9.95;5.15;;;1.50;99.90;;;;;;4972028;28;20049;-76
2023/12/04 12:05:38;;;;;;;11.77;5.72;;;1.40;99.90;;;;;;4962592;28;20053;-76
2023/12/04 12:08:05;;;;;;;8.65;4.95;;;1.80;99.90;;;;;;4972178;28;20071;-76
2023/12/04 12:10:32;;;;;;;10.00;5.53;;;1.50;99.90;;;;;;4955363;28;20401;-76
2023/12/04 12:12:58;;;;;;;10.95;6.18;;;1.50;99.90;;;;;;4953139;28;20035;-76
2023/12/04 12:15:24;;;;;;;8.80;5.93;;;1.50;99.90;;;;;;4946895;28;20046;-76
2023/12/04 12:17:51;;;;;;;10.23;5.40;;;1.50;99.90;;;;;;4971855;28;20093;-76
2023/12/04 12:20:17;;;;;;;6.97;4.70;;;1.60;99.90;;;;;;4939883;28;20066;-76
2023/12/04 12:22:43;;;;;;;10.30;5.70;;;1.90;99.90;;;;;;4971369;28;20035;-76
2023/12/04 12:25:10;;;;;;;11.27;6.38;;;1.60;99.90;;;;;;4962523;28;20121;-76
2023/12/04 12:27:37;;;;;;;12.45;6.45;;;1.60;99.90;;;;;;4952095;28;20039;-76
2023/12/04 12:30:04;;;;;;;12.32;6.15;;;1.70;99.90;;;;;;4933629;28;20039;-76
2023/12/04 12:32:36;;;;;;;13.60;6.95;;;1.60;99.90;;;;;;4958490;28;20054;-76
2023/12/04 12:35:03;;;;;;;11.38;5.68;;;1.60;99.90;;;;;;4964466;28;20039;-76